Central Sonoma County Latest

29 Stations

15 Minute Data | America/Los_Angeles
as of 1/27/23 7:20 AM PST
Station Date Time Temp (°F) RH (%) Dew Pt (°F) Wind Spd (mph) Wind Dir (°) Wind Gust (mph) Latest Rain (In) Daily Rain (In) Daily Min Temp (°F) Daily Max Temp (°F)
Healdsburg-South (Sodini) 1/27/23 0715 32.6   9.8 98   29 32.1   0.9 0.0 N | 0 0.0   5.1 0.00 0.00 32.0   10.1 38.5   23.6
Windsor-NW (Ranch 8) 1/27/23 0715 35.8   13.0 87   29 32.2   2.5 1.0 NW | 315 2.3   2.0 0.00 0.00 35.0   11.8 42.3   22.2
Windsor-East (Ranch 16) 1/27/23 0700 32.6   30.3 98   72 32.0   5.1 1.1 SSE | 147 2.7   15.7 0.00 0.00 31.9   28.8 39.2   25.8
Mark West-North (Ranch 14) 1/27/23 0715 34.5   27.3 96   70 33.6   6.4 1.0 N | 354 3.7   12.6 0.00 0.00 33.1   24.7 41.7   23.2
Windsor-SE (Silk Rd) 1/27/23 0715 31.5   18.9 99   47 31.1   2.0 1.2 E | 87 2.5   3.3 0.00 0.00 31.1   14.4 37.1   28.4
Fulton-NW (Ranch 5) 1/27/23 0715 32.6   25.2 99   65 32.4   3.0 1.4 S | 177 2.1   9.6 0.00 0.00 32.3   23.1 38.4   27.1
Windsor-South (Laughlin Rd) 1/27/23 0715 32.6   27.4 - - - - - 0.00 0.00 32.1   27.3 40.8   23.5
Fulton-SE (Barnes Rd) 1/27/23 0715 33.9   19.8 96   53 32.9   1.1 1.7 SE | 140 3.3   0.2 0.00 0.00 32.6   16.9 40.4   21.6
Fulton-SW (Ranch 21) 1/27/23 0715 33.6   20.2 - - 2.1 SSE | 165 3.7   3.4 0.00 0.00 33.2   19.0 40.2   24.0
Santa Rosa-NW (Goldfields) 1/27/23 0715 33.9   19.8 100   59 33.9   3.6 1.8 SSE | 153 2.5   3.0 0.00 0.00 33.7   18.6 40.4   23.5
NW Santa Rosa (Piner Road) 1/27/23 0715 33.7   17.4 99   50 33.4   1.0 1.4 SE | 131 2.3   0.0 0.00 0.00 33.5   16.4 39.1   25.1
River Rd South (Denner Ranch) 12/26/22 2230 51.1   6.4 6   94 - 7.9 S | 175 16.7   12.7 - - 42.2   2.6 51.5   9.7
West Santa Rosa (Hawk's Roost) 1/27/23 0715 34.4   17.0 99   54 34.2   3.2 0.5 E | 101 1.5   0.1 0.00 0.00 34.0   16.2 39.0   25.9
Guerneville Rd (Prokopakis) 1/27/23 0715 35.3   18.6 100   56 35.3   2.9 - - - 0.00 0.00 34.9   16.9 40.0   24.5
Guerneville Rd West (Balletto) 1/27/23 0715 35.5   15.4 98   44 35.0   0.2 1.6 E | 92 2.5   0.1 0.00 0.00 34.2   14.9 39.4   25.7
Guerneville Rd East (Rich Ranch) 1/27/23 0715 34.8   15.9 100   53 34.7   3.9 - - - - - 34.6   11.0 38.5   25.6
Occidental Rd (Sebastopol) 1/27/23 0715 36.0   13.7 100   44 36.0   1.2 0.5 E | 101 1.8   3.7 0.00 0.00 34.4   12.3 38.4   25.3
Lower Westside Rd (Ranch 12) 1/27/23 0715 32.9   8.2 97   19 32.3   2.5 0.0 N | 0 0.0   0.0 0.00 0.00 32.6   7.8 38.7   19.5
Guerneville (Laughlin Rd) 1/27/23 0715 31.8   0.1 100   0 31.8   0.1 0.0 N | 0 0.0   1.7 0.00 0.00 31.6   0.3 36.2   1.1
Korbel (Winery) 1/27/23 0715 34.0   1.0 100   0 34.0   0.9 0.1 N | 9 1.3   0.9 0.00 0.00 33.9   0.6 38.3   1.6
Forestville (Shone Farms) 12/23/22 0200 45.0   1.3 88   9 41.6   1.5 1.3 WSW | 244 2.6   0.3 0.00 0.00 42.8   2.4 46.2   3.0
Forestville-NE (Ranch 30) 1/27/23 0715 33.0   7.1 99   12 32.6   3.9 1.6 N | 9 3.1   0.3 0.00 0.00 32.0   7.5 39.9   23.9
Green Valley Vineyard 1/27/23 0715 34.7   12.1 96   39 33.7   1.5 3.2 W | 278 4.2   2.6 0.00 0.00 34.2   10.7 41.8   20.7
Graton-West (Dutton Ranch) 1/27/23 0715 32.0   9.6 100   0 32.0   9.6 0.7 S | 170 2.1   0.4 0.00 0.00 31.4   9.0 37.3   25.7
Graton-South (Mill Station Rd) 1/27/23 0700 32.1   22.5 99   58 31.7   0.5 0.0 N | 0 0.0   0.0 0.00 0.00 31.4   17.4 35.8   29.7
Occidental (Horseshoe Bend) 1/27/23 0715 41.2   17.6 84   54 36.6   9.2 - - - 0.00 0.00 40.2   17.7 48.6   14.9
Sexton Valley (Jacqueline's Blk) 1/27/23 0715 33.3   10.9 98   25 32.7   3.2 0.2 WNW | 288 1.0   1.3 0.00 0.00 32.5   9.4 37.8   26.4
Sebastopol Hills (Burnside Rd) 1/27/23 0715 37.6   21.2 100   67 37.6   7.6 0.0 N | 0 0.0   3.0 0.00 0.00 36.7   20.0 47.6   15.9
Seaview/Fort Ross (Hirsch) 1/27/23 0715 55.6   1.1 26   3 21.0   3.5 0.1 SW | 233 1.2   5.2 0.00 0.00 48.5   6.5 57.4   1.6
Max     55.6 100 37.6 3.2 - 4.2 0.00 0.00 48.5 57.4
Avg     34.9 95 33.0 0.9 - 1.9 0.00 - - -
Min     31.5 26 21.0 0.0 - 0.0 0.00 0.00 31.1 35.8